Time;durP1;ratioP1;P1;durP2;ratioP2;P2;SDS_P1;SDS_P2;PMS_P1;PMS_P2;Temp;Humidity;BMP_temperature;BMP_pressure;BME280_temperature;BME280_humidity;BME280_pressure;Samples;Min_cycle;Max_cycle;Signal;HPM_P1;HPM_P2
2021/12/15 00:00:22;;;;;;;;;;;;;;;-142.21;100.00;66915.31;5026363;23;3645;-88
2021/12/15 00:02:51;;;;;;;;;;;;;;;-142.21;100.00;66915.31;5040338;28;1530;-88
2021/12/15 00:05:21;;;;;;;;;;;;;;;-142.21;100.00;66915.31;5050704;28;1219;-88
2021/12/15 00:07:48;;;;;;;;;;;;;;;-142.21;100.00;66915.31;5035533;28;883;-87
2021/12/15 00:10:13;;;;;;;;;;;;;;;-142.21;100.00;66915.31;5050141;28;1763;-88
2021/12/15 00:12:39;;;;;;;;;;;;;;;-142.21;100.00;66915.31;5035130;28;1046;-88
2021/12/15 00:15:04;;;;;;;;;;;;;;;-142.21;100.00;66915.31;5036181;28;1231;-88
2021/12/15 00:17:30;;;;;;;;;;;;;;;-142.21;100.00;66915.31;5035374;28;1490;-88
2021/12/15 00:19:55;;;;;;;;;;;;;;;-142.21;100.00;66915.31;5035635;28;1899;-88
2021/12/15 00:22:20;;;;;;;;;;;;;;;-142.21;100.00;66915.31;5033888;28;1243;-88
2021/12/15 00:24:45;;;;;;;;;;;;;;;-142.21;100.00;66915.31;5034067;28;1343;-87
2021/12/15 00:27:10;;;;;;;;;;;;;;;-142.21;100.00;66915.31;5050272;28;1428;-88
2021/12/15 00:29:36;;;;;;;;;;;;;;;-142.21;100.00;66915.31;5033340;28;1306;-88
2021/12/15 00:32:04;;;;;;;;;;;;;;;-142.21;100.00;66915.31;5033580;28;984;-88
2021/12/15 00:34:31;;;;;;;;;;;;;;;-142.21;100.00;66915.31;5034933;28;868;-88
2021/12/15 00:36:57;;;;;;;;;;;;;;;-142.21;100.00;66915.31;5033541;28;1448;-87
2021/12/15 00:39:22;;;;;;;;;;;;;;;-142.21;100.00;66915.31;5033398;28;1906;-87
2021/12/15 00:41:48;;;;;;;;;;;;;;;-142.21;100.00;66915.31;5033969;28;1247;-88
2021/12/15 00:44:13;;;;;;;;;;;;;;;-142.21;100.00;66915.31;5033325;28;1467;-87
2021/12/15 00:46:38;;;;;;;;;;;;;;;-142.21;100.00;66915.31;5034031;28;1452;-87
2021/12/15 00:49:04;;;;;;;;;;;;;;;-142.21;100.00;66915.31;5033948;28;1342;-88
2021/12/15 00:51:29;;;;;;;;;;;;;;;-142.21;100.00;66915.31;5034133;28;1551;-88
2021/12/15 00:53:55;;;;;;;;;;;;;;;-142.21;100.00;66915.31;5033957;28;1518;-88
2021/12/15 00:56:20;;;;;;;;;;;;;;;-142.21;100.00;66915.31;5050603;28;1331;-88
2021/12/15 00:58:45;;;;;;;;;;;;;;;-142.21;100.00;66915.31;5051426;28;1890;-88
2021/12/15 01:01:10;;;;;;;;;;;;;;;-142.21;100.00;66915.31;5051594;28;1168;-87
2021/12/15 01:03:36;;;;;;;;;;;;;;;-142.21;100.00;66915.31;5034496;28;1441;-88
2021/12/15 01:06:06;;;;;;;;;;;;;;;-142.21;100.00;66915.31;5034394;28;1488;-87
2021/12/15 01:08:32;;;;;;;;;;;;;;;-142.21;100.00;66915.31;5035239;28;1315;-88
2021/12/15 01:11:15;;;;;;;;;;;;;;;-142.21;100.00;66915.31;5035776;28;1344;-88
2021/12/15 01:21:57;;;;;;;;;;;;;;;-142.21;100.00;66915.31;5036155;28;612;-88
2021/12/15 01:24:22;;;;;;;;;;;;;;;-142.21;100.00;66915.31;5036560;28;945;-87
2021/12/15 01:26:47;;;;;;;;;;;;;;;-142.21;100.00;66915.31;5037332;28;1259;-88
2021/12/15 01:29:13;;;;;;;;;;;;;;;-142.21;100.00;66915.31;5036965;28;1478;-88
2021/12/15 01:31:38;;;;;;;;;;;;;;;-142.21;100.00;66915.31;5037316;28;1452;-88
2021/12/15 01:34:03;;;;;;;;;;;;;;;-142.21;100.00;66915.31;5053571;28;1175;-88
2021/12/15 01:36:29;;;;;;;;;;;;;;;-142.21;100.00;66915.31;5038154;28;1164;-88
2021/12/15 01:38:54;;;;;;;;;;;;;;;-142.21;100.00;66915.31;5037387;28;1894;-87
2021/12/15 01:41:22;;;;;;;;;;;;;;;-142.21;100.00;66915.31;5037547;28;1503;-86
2021/12/15 01:46:52;;;;;;;;;;;;;;;-142.21;100.00;66915.31;5038399;28;1214;-87
2021/12/15 01:46:57;;;;;;;;;;;;;;;-142.21;100.00;66915.31;5039409;28;794;-88
2021/12/15 01:49:30;;;;;;;;;;;;;;;-142.21;100.00;66915.31;5039268;28;1518;-88
2021/12/15 01:51:57;;;;;;;;;;;;;;;-142.21;100.00;66915.31;5054150;28;1443;-87
2021/12/15 01:54:23;;;;;;;;;;;;;;;-142.21;100.00;66915.31;5054047;28;1168;-87
2021/12/15 01:56:48;;;;;;;;;;;;;;;-142.21;100.00;66915.31;5037801;28;1155;-87
2021/12/15 01:59:14;;;;;;;;;;;;;;;-142.21;100.00;66915.31;5038835;28;1898;-88
2021/12/15 02:01:40;;;;;;;;;;;;;;;-142.21;100.00;66915.31;5037798;28;1201;-87
2021/12/15 02:04:05;;;;;;;;;;;;;;;-142.21;100.00;66915.31;5037411;28;1172;-88
2021/12/15 02:06:30;;;;;;;;;;;;;;;-142.21;100.00;66915.31;5036921;28;1427;-88
2021/12/15 02:08:56;;;;;;;;;;;;;;;-142.21;100.00;66915.31;5038625;28;1298;-88
2021/12/15 02:11:21;;;;;;;;;;;;;;;-142.21;100.00;66915.31;5040094;28;1514;-88
2021/12/15 02:13:46;;;;;;;;;;;;;;;-142.21;100.00;66915.31;5037202;28;1319;-87
2021/12/15 02:16:12;;;;;;;;;;;;;;;-142.21;100.00;66915.31;5036443;28;1298;-88
2021/12/15 02:18:41;;;;;;;;;;;;;;;-142.21;100.00;66915.31;5037613;28;1882;-88
2021/12/15 02:21:11;;;;;;;;;;;;;;;-142.21;100.00;66915.31;5037218;28;742;-87
2021/12/15 02:23:42;;;;;;;;;;;;;;;-142.21;100.00;66915.31;5052806;28;1284;-87
2021/12/15 02:26:10;;;;;;;;;;;;;;;-142.21;100.00;66915.31;5036315;28;1311;-88
2021/12/15 02:28:37;;;;;;;;;;;;;;;-142.21;100.00;66915.31;5035353;28;1322;-87
2021/12/15 02:31:14;;;;;;;;;;;;;;;-142.21;100.00;66915.31;5036653;28;1384;-87
2021/12/15 02:33:59;;;;;;;;;;;;;;;-142.21;100.00;66915.31;5053414;28;1254;-87
2021/12/15 02:39:10;;;;;;;;;;;;;;;-142.21;100.00;66915.31;5037787;28;1879;-88
2021/12/15 02:41:37;;;;;;;;;;;;;;;-142.21;100.00;66915.31;5035422;28;1365;-88
2021/12/15 02:44:07;;;;;;;;;;;;;;;-142.21;100.00;66915.31;5036962;28;987;-88
2021/12/15 02:46:34;;;;;;;;;;;;;;;-142.21;100.00;66915.31;5035641;28;1421;-88
2021/12/15 02:49:00;;;;;;;;;;;;;;;-142.21;100.00;66915.31;5036725;28;1356;-88
2021/12/15 02:51:26;;;;;;;;;;;;;;;-142.21;100.00;66915.31;5035417;28;1277;-87
2021/12/15 02:53:51;;;;;;;;;;;;;;;-142.21;100.00;66915.31;5034818;28;1314;-86
2021/12/15 02:56:17;;;;;;;;;;;;;;;-142.21;100.00;66915.31;5035347;28;1415;-89
2021/12/15 02:58:50;;;;;;;;;;;;;;;-142.21;100.00;66915.31;5034637;28;1898;-88
2021/12/15 03:01:23;;;;;;;;;;;;;;;-142.21;100.00;66915.31;5035281;28;1204;-87
2021/12/15 03:06:40;;;;;;;;;;;;;;;-142.21;100.00;66915.31;5035869;28;1550;-87
2021/12/15 03:09:42;;;;;;;;;;;;;;;-142.21;100.00;66915.31;5035017;28;1366;-87
2021/12/15 03:17:06;;;;;;;;;;;;;;;-142.21;100.00;66915.31;5037947;28;825;-87
2021/12/15 03:19:32;;;;;;;;;;;;;;;-142.21;100.00;66915.31;5036230;28;1906;-88
2021/12/15 03:21:57;;;;;;;;;;;;;;;-142.21;100.00;66915.31;5037700;28;992;-88
2021/12/15 03:24:24;;;;;;;;;;;;;;;-142.21;100.00;66915.31;5036431;28;1538;-86
2021/12/15 03:26:58;;;;;;;;;;;;;;;-142.21;100.00;66915.31;5037570;28;1444;-88
2021/12/15 03:33:28;;;;;;;;;;;;;;;-142.21;100.00;66915.31;5036311;28;553;-88
2021/12/15 03:37:43;;;;;;;;;;;;;;;-142.21;100.00;66915.31;5036003;28;956;-88
2021/12/15 03:40:15;;;;;;;;;;;;;;;-142.21;100.00;66915.31;5033644;28;1894;-88
2021/12/15 03:42:42;;;;;;;;;;;;;;;-142.21;100.00;66915.31;5034229;28;1208;-88
2021/12/15 03:45:09;;;;;;;;;;;;;;;-142.21;100.00;66915.31;5035212;28;1154;-88
2021/12/15 03:47:36;;;;;;;;;;;;;;;-142.21;100.00;66915.31;5035773;28;1285;-88
2021/12/15 03:50:03;;;;;;;;;;;;;;;-142.21;100.00;66915.31;5031657;28;1294;-87
2021/12/15 03:52:28;;;;;;;;;;;;;;;-142.21;100.00;66915.31;5020392;28;1366;-87
2021/12/15 03:54:54;;;;;;;;;;;;;;;-142.21;100.00;66915.31;5042101;28;1224;-87
2021/12/15 03:57:21;;;;;;;;;;;;;;;-142.21;100.00;66915.31;5054973;28;1175;-87
2021/12/15 03:59:46;;;;;;;;;;;;;;;-142.21;100.00;66915.31;5040107;28;1906;-87
2021/12/15 04:02:12;;;;;;;;;;;;;;;-142.21;100.00;66915.31;5055823;28;1530;-88
2021/12/15 04:04:39;;;;;;;;;;;;;;;-142.21;100.00;66915.31;5037925;28;1484;-87
2021/12/15 04:07:05;;;;;;;;;;;;;;;-142.21;100.00;66915.31;5038198;28;1562;-87
2021/12/15 04:09:30;;;;;;;;;;;;;;;-142.21;100.00;66915.31;5037131;28;1476;-87
2021/12/15 04:11:55;;;;;;;;;;;;;;;-142.21;100.00;66915.31;5037740;28;1086;-87
2021/12/15 04:14:28;;;;;;;;;;;;;;;-142.21;100.00;66915.31;5037218;28;1215;-87
2021/12/15 04:17:07;;;;;;;;;;;;;;;-142.21;100.00;66915.31;5054567;28;1211;-87
2021/12/15 04:19:34;;;;;;;;;;;;;;;-142.21;100.00;66915.31;5037891;28;1902;-87
2021/12/15 04:21:59;;;;;;;;;;;;;;;-142.21;100.00;66915.31;5038675;28;1040;-87
2021/12/15 04:24:27;;;;;;;;;;;;;;;-142.21;100.00;66915.31;5036921;28;1480;-87
2021/12/15 04:26:53;;;;;;;;;;;;;;;-142.21;100.00;66915.31;5037498;28;1204;-87
2021/12/15 04:29:18;;;;;;;;;;;;;;;-142.21;100.00;66915.31;5053953;28;1332;-87
2021/12/15 04:31:48;;;;;;;;;;;;;;;-142.21;100.00;66915.31;5037410;28;1483;-87
2021/12/15 04:34:13;;;;;;;;;;;;;;;-142.21;100.00;66915.31;5039264;28;896;-86
2021/12/15 04:36:41;;;;;;;;;;;;;;;-142.21;100.00;66915.31;5037758;28;1219;-87
2021/12/15 04:39:08;;;;;;;;;;;;;;;-142.21;100.00;66915.31;5037040;28;1898;-87
2021/12/15 04:41:33;;;;;;;;;;;;;;;-142.21;100.00;66915.31;5037946;28;848;-86
2021/12/15 04:44:00;;;;;;;;;;;;;;;-142.21;100.00;66915.31;5037730;28;1227;-87
2021/12/15 04:46:28;;;;;;;;;;;;;;;-142.21;100.00;66915.31;5037117;28;1400;-86
2021/12/15 04:48:53;;;;;;;;;;;;;;;-142.21;100.00;66915.31;5053271;28;1562;-86
2021/12/15 04:51:18;;;;;;;;;;;;;;;-142.21;100.00;66915.31;5038147;28;1062;-87
2021/12/15 04:53:44;;;;;;;;;;;;;;;-142.21;100.00;66915.31;5037662;28;1534;-87
2021/12/15 04:56:10;;;;;;;;;;;;;;;-142.21;100.00;66915.31;5036495;28;1206;-87
2021/12/15 04:58:35;;;;;;;;;;;;;;;-142.21;100.00;66915.31;5036435;28;1901;-87
2021/12/15 05:01:02;;;;;;;;;;;;;;;-142.21;100.00;66915.31;5038851;28;1479;-88
2021/12/15 05:03:27;;;;;;;;;;;;;;;-142.21;100.00;66915.31;5038896;28;1559;-87
2021/12/15 05:05:53;;;;;;;;;;;;;;;-142.21;100.00;66915.31;5040226;28;884;-88
2021/12/15 05:08:18;;;;;;;;;;;;;;;-142.21;100.00;66915.31;5038841;28;1287;-88
2021/12/15 05:10:43;;;;;;;;;;;;;;;-142.21;100.00;66915.31;5039424;28;1366;-88
2021/12/15 05:13:10;;;;;;;;;;;;;;;-142.21;100.00;66915.31;5042355;28;818;-87
2021/12/15 05:15:35;;;;;;;;;;;;;;;-142.21;100.00;66915.31;5039211;28;1443;-87
2021/12/15 05:18:01;;;;;;;;;;;;;;;-142.21;100.00;66915.31;5040283;28;1898;-89
2021/12/15 05:20:26;;;;;;;;;;;;;;;-142.21;100.00;66915.31;5038589;28;1464;-88
2021/12/15 05:22:52;;;;;;;;;;;;;;;-142.21;100.00;66915.31;5039707;28;864;-88
2021/12/15 05:25:17;;;;;;;;;;;;;;;-142.21;100.00;66915.31;5038080;28;1266;-86
2021/12/15 05:27:43;;;;;;;;;;;;;;;-142.21;100.00;66915.31;5039594;28;991;-87
2021/12/15 05:30:10;;;;;;;;;;;;;;;-142.21;100.00;66915.31;5039488;28;1233;-87
2021/12/15 05:32:36;;;;;;;;;;;;;;;-142.21;100.00;66915.31;5037951;28;1268;-87
2021/12/15 05:35:01;;;;;;;;;;;;;;;-142.21;100.00;66915.31;5039639;28;1494;-87
2021/12/15 05:37:27;;;;;;;;;;;;;;;-142.21;100.00;66915.31;5039370;28;1476;-86
2021/12/15 05:39:53;;;;;;;;;;;;;;;-142.21;100.00;66915.31;5040021;28;1937;-87
2021/12/15 05:42:19;;;;;;;;;;;;;;;-142.21;100.00;66915.31;5040116;28;1517;-87
2021/12/15 05:44:44;;;;;;;;;;;;;;;-142.21;100.00;66915.31;5039634;28;1294;-87
2021/12/15 05:47:10;;;;;;;;;;;;;;;-142.21;100.00;66915.31;5061015;28;1479;-88
2021/12/15 05:49:35;;;;;;;;;;;;;;;-142.21;100.00;66915.31;5038936;28;1235;-87
2021/12/15 05:52:00;;;;;;;;;;;;;;;-142.21;100.00;66915.31;5055451;28;1542;-87
2021/12/15 05:54:25;;;;;;;;;;;;;;;-142.21;100.00;66915.31;5039289;28;1495;-86
2021/12/15 05:56:51;;;;;;;;;;;;;;;-142.21;100.00;66915.31;5040533;28;1302;-88
2021/12/15 05:59:16;;;;;;;;;;;;;;;-142.21;100.00;66915.31;5040995;28;1951;-88
2021/12/15 06:01:41;;;;;;;;;;;;;;;-142.21;100.00;66915.31;5042170;28;1700;-87
2021/12/15 06:06:36;;;;;;;;;;;;;;;-142.21;100.00;66915.31;5037362;28;1413;-88
2021/12/15 06:09:02;;;;;;;;;;;;;;;-142.21;100.00;66915.31;5036585;28;1496;-89
2021/12/15 06:11:28;;;;;;;;;;;;;;;-142.21;100.00;66915.31;5036412;28;1241;-89
2021/12/15 06:13:53;;;;;;;;;;;;;;;-142.21;100.00;66915.31;5039107;28;1223;-90
2021/12/15 06:16:20;;;;;;;;;;;;;;;-142.21;100.00;66915.31;5038266;28;821;-91
2021/12/15 06:18:48;;;;;;;;;;;;;;;-142.21;100.00;66915.31;5037868;28;1977;-92
2021/12/15 06:21:13;;;;;;;;;;;;;;;-142.21;100.00;66915.31;5036038;28;1287;-92
2021/12/15 06:23:38;;;;;;;;;;;;;;;-142.21;100.00;66915.31;5036236;28;1297;-91
2021/12/15 06:26:05;;;;;;;;;;;;;;;-142.21;100.00;66915.31;5035843;28;968;-91
2021/12/15 06:28:31;;;;;;;;;;;;;;;-142.21;100.00;66915.31;5036327;28;809;-91
2021/12/15 06:30:58;;;;;;;;;;;;;;;-142.21;100.00;66915.31;5037086;28;834;-93
2021/12/15 06:33:24;;;;;;;;;;;;;;;-142.21;100.00;66915.31;5035454;28;1232;-91
2021/12/15 06:35:58;;;;;;;;;;;;;;;-142.21;100.00;66915.31;5035088;28;1209;-91
2021/12/15 06:38:25;;;;;;;;;;;;;;;-142.21;100.00;66915.31;5036746;28;1934;-91
2021/12/15 06:40:51;;;;;;;;;;;;;;;-142.21;100.00;66915.31;5037344;28;1014;-88
2021/12/15 06:43:16;;;;;;;;;;;;;;;-142.21;100.00;66915.31;5035924;28;1295;-91
2021/12/15 06:59:21;;;;;;;;;;;;;;;-142.21;100.00;66915.31;5037573;28;1897;-88
2021/12/15 07:01:49;;;;;;;;;;;;;;;-142.21;100.00;66915.31;5036109;28;1257;-90
2021/12/15 07:04:14;;;;;;;;;;;;;;;-142.21;100.00;66915.31;5041473;28;1204;-91
2021/12/15 07:06:39;;;;;;;;;;;;;;;-142.21;100.00;66915.31;5035773;28;1250;-89
2021/12/15 07:09:05;;;;;;;;;;;;;;;-142.21;100.00;66915.31;5037161;28;885;-92
2021/12/15 07:11:30;;;;;;;;;;;;;;;-142.21;100.00;66915.31;5036654;28;814;-90
2021/12/15 07:13:55;;;;;;;;;;;;;;;-142.21;100.00;66915.31;5038126;28;1312;-91
2021/12/15 07:16:21;;;;;;;;;;;;;;;-142.21;100.00;66915.31;5036973;28;888;-88
2021/12/15 07:21:17;;;;;;;;;;;;;;;-142.21;100.00;66915.31;5037663;28;1030;-88
2021/12/15 07:23:42;;;;;;;;;;;;;;;-142.21;100.00;66915.31;5034975;28;1347;-91
2021/12/15 07:26:08;;;;;;;;;;;;;;;-142.21;100.00;66915.31;5036907;28;984;-89
2021/12/15 07:28:33;;;;;;;;;;;;;;;-142.21;100.00;66915.31;5034403;28;1173;-90
2021/12/15 07:30:59;;;;;;;;;;;;;;;-142.21;100.00;66915.31;5037299;28;1035;-88
2021/12/15 07:33:24;;;;;;;;;;;;;;;-142.21;100.00;66915.31;5038305;28;1282;-88
2021/12/15 07:35:49;;;;;;;;;;;;;;;-142.21;100.00;66915.31;5038104;28;1213;-91
2021/12/15 07:38:15;;;;;;;;;;;;;;;-142.21;100.00;66915.31;5036878;28;1966;-90
2021/12/15 07:40:40;;;;;;;;;;;;;;;-142.21;100.00;66915.31;5037597;28;814;-88
2021/12/15 07:43:09;;;;;;;;;;;;;;;-142.21;100.00;66915.31;5036927;28;1323;-91
2021/12/15 07:45:41;;;;;;;;;;;;;;;-142.21;100.00;66915.31;5036160;28;1203;-92
2021/12/15 07:48:07;;;;;;;;;;;;;;;-142.21;100.00;66915.31;5035381;28;1196;-88
2021/12/15 07:50:32;;;;;;;;;;;;;;;-142.21;100.00;66915.31;5037513;28;785;-89
2021/12/15 07:52:58;;;;;;;;;;;;;;;-142.21;100.00;66915.31;5036855;28;1302;-93
2021/12/15 07:55:25;;;;;;;;;;;;;;;-142.21;100.00;66915.31;5036466;28;1182;-90
2021/12/15 07:57:51;;;;;;;;;;;;;;;-142.21;100.00;66915.31;5036040;28;832;-91
2021/12/15 08:00:17;;;;;;;;;;;;;;;-142.21;100.00;66915.31;5034295;28;1902;-91
2021/12/15 08:02:42;;;;;;;;;;;;;;;-142.21;100.00;66915.31;5035720;28;1200;-93
2021/12/15 08:05:08;;;;;;;;;;;;;;;-142.21;100.00;66915.31;5035510;28;966;-92
2021/12/15 08:07:34;;;;;;;;;;;;;;;-142.21;100.00;66915.31;5051108;28;1322;-91
2021/12/15 08:09:59;;;;;;;;;;;;;;;-142.21;100.00;66915.31;5036338;28;841;-90
2021/12/15 08:12:27;;;;;;;;;;;;;;;-142.21;100.00;66915.31;5051791;28;1363;-89
2021/12/15 08:14:53;;;;;;;;;;;;;;;-142.21;100.00;66915.31;5034802;28;1362;-90
2021/12/15 08:17:20;;;;;;;;;;;;;;;-142.21;100.00;66915.31;5050985;28;897;-90
2021/12/15 08:19:45;;;;;;;;;;;;;;;-142.21;100.00;66915.31;5035070;28;1886;-88
2021/12/15 08:22:10;;;;;;;;;;;;;;;-142.21;100.00;66915.31;5034916;28;1323;-88
2021/12/15 08:24:35;;;;;;;;;;;;;;;-142.21;100.00;66915.31;5034762;28;870;-90
2021/12/15 08:27:00;;;;;;;;;;;;;;;-142.21;100.00;66915.31;5034540;28;953;-92
2021/12/15 08:29:26;;;;;;;;;;;;;;;-142.21;100.00;66915.31;5037092;28;984;-90
2021/12/15 08:31:51;;;;;;;;;;;;;;;-142.21;100.00;66915.31;5051767;28;1184;-92
2021/12/15 08:34:16;;;;;;;;;;;;;;;-142.21;100.00;66915.31;5035878;28;1296;-92
2021/12/15 08:36:41;;;;;;;;;;;;;;;-142.21;100.00;66915.31;5055645;28;1200;-89
2021/12/15 08:39:07;;;;;;;;;;;;;;;-142.21;100.00;66915.31;5055866;28;1889;-88
2021/12/15 08:41:33;;;;;;;;;;;;;;;-142.21;100.00;66915.31;5039871;28;1203;-90
2021/12/15 08:43:58;;;;;;;;;;;;;;;-142.21;100.00;66915.31;5039480;28;1303;-91
2021/12/15 08:46:25;;;;;;;;;;;;;;;-142.21;100.00;66915.31;5041404;28;844;-90
2021/12/15 08:48:52;;;;;;;;;;;;;;;-142.21;100.00;66915.31;5040637;28;1411;-92
2021/12/15 08:51:25;;;;;;;;;;;;;;;-142.21;100.00;66915.31;5055617;28;1339;-91
2021/12/15 08:53:50;;;;;;;;;;;;;;;-142.21;100.00;66915.31;5055710;28;1277;-91
2021/12/15 08:56:15;;;;;;;;;;;;;;;-142.21;100.00;66915.31;5039719;28;790;-91
2021/12/15 08:58:40;;;;;;;;;;;;;;;-142.21;100.00;66915.31;5039531;28;1967;-90
2021/12/15 09:01:07;;;;;;;;;;;;;;;-142.21;100.00;66915.31;5039414;28;793;-90
2021/12/15 09:03:32;;;;;;;;;;;;;;;-142.21;100.00;66915.31;5054876;28;1271;-91
2021/12/15 09:05:59;;;;;;;;;;;;;;;-142.21;100.00;66915.31;5039312;28;983;-91
2021/12/15 09:08:24;;;;;;;;;;;;;;;-142.21;100.00;66915.31;5055401;28;1312;-88
2021/12/15 09:10:50;;;;;;;;;;;;;;;-142.21;100.00;66915.31;5040206;28;912;-91
2021/12/15 09:13:16;;;;;;;;;;;;;;;-142.21;100.00;66915.31;5040447;28;1369;-89
2021/12/15 09:15:42;;;;;;;;;;;;;;;-142.21;100.00;66915.31;5039126;28;1196;-90
2021/12/15 09:18:08;;;;;;;;;;;;;;;-142.21;100.00;66915.31;5039817;28;1901;-91
2021/12/15 09:20:34;;;;;;;;;;;;;;;-142.21;100.00;66915.31;5040728;28;793;-90
2021/12/15 09:23:01;;;;;;;;;;;;;;;-142.21;100.00;66915.31;5040112;28;1369;-89
2021/12/15 09:25:27;;;;;;;;;;;;;;;-142.21;100.00;66915.31;5055421;28;1208;-90
2021/12/15 09:27:52;;;;;;;;;;;;;;;-142.21;100.00;66915.31;5040489;28;897;-91
2021/12/15 09:30:19;;;;;;;;;;;;;;;-142.21;100.00;66915.31;5039864;28;953;-91
2021/12/15 09:32:45;;;;;;;;;;;;;;;-142.21;100.00;66915.31;5039047;28;1278;-90
2021/12/15 09:35:11;;;;;;;;;;;;;;;-142.21;100.00;66915.31;5054071;28;1283;-91
2021/12/15 09:37:37;;;;;;;;;;;;;;;-142.21;100.00;66915.31;5039091;28;979;-91
2021/12/15 09:40:03;;;;;;;;;;;;;;;-142.21;100.00;66915.31;5038436;28;1882;-91
2021/12/15 09:42:34;;;;;;;;;;;;;;;-142.21;100.00;66915.31;5054846;28;1279;-90
2021/12/15 09:45:15;;;;;;;;;;;;;;;-142.21;100.00;66915.31;5040180;28;821;-89
2021/12/15 09:48:07;;;;;;;;;;;;;;;-142.21;100.00;66915.31;5040617;28;872;-90
2021/12/15 09:56:49;;;;;;;;;;;;;;;-142.21;100.00;66915.31;5038987;28;639;-92
2021/12/15 10:02:26;;;;;;;;;;;;;;;-142.21;100.00;66915.31;5030117;28;1375;-90
2021/12/15 10:18:22;;;;;;;;;;;;;;;-142.21;100.00;66915.31;5019426;28;1886;-88
2021/12/15 10:20:47;;;;;;;;;;;;;;;-142.21;100.00;66915.31;5017140;28;1442;-93
2021/12/15 10:23:15;;;;;;;;;;;;;;;-142.21;100.00;66915.31;5017413;28;1349;-91
2021/12/15 10:25:43;;;;;;;;;;;;;;;-142.21;100.00;66915.31;5016974;28;1240;-91
2021/12/15 10:28:10;;;;;;;;;;;;;;;-142.21;100.00;66915.31;5016718;28;1376;-92
2021/12/15 10:30:38;;;;;;;;;;;;;;;-142.21;100.00;66915.31;5017284;28;1498;-88
2021/12/15 10:33:20;;;;;;;;;;;;;;;-142.21;100.00;66915.31;5016693;28;1316;-90
2021/12/15 10:35:47;;;;;;;;;;;;;;;-142.21;100.00;66915.31;5016536;28;1350;-90
2021/12/15 10:38:29;;;;;;;;;;;;;;;-142.21;100.00;66915.31;5017294;28;1969;-88
2021/12/15 10:41:01;;;;;;;;;;;;;;;-142.21;100.00;66915.31;5017948;28;857;-87
2021/12/15 10:43:28;;;;;;;;;;;;;;;-142.21;100.00;66915.31;5015964;28;1291;-91
2021/12/15 10:45:59;;;;;;;;;;;;;;;-142.21;100.00;66915.31;5015804;28;1272;-90
2021/12/15 10:48:35;;;;;;;;;;;;;;;-142.21;100.00;66915.31;5016006;28;1360;-90
2021/12/15 10:51:02;;;;;;;;;;;;;;;-142.21;100.00;66915.31;5018173;28;896;-88
2021/12/15 10:53:32;;;;;;;;;;;;;;;-142.21;100.00;66915.31;5018345;28;1290;-89
2021/12/15 10:55:57;;;;;;;;;;;;;;;-142.21;100.00;66915.31;5016414;28;1369;-91
2021/12/15 10:58:30;;;;;;;;;;;;;;;-142.21;100.00;66915.31;5016571;28;2020;-89
2021/12/15 11:00:55;;;;;;;;;;;;;;;-142.21;100.00;66915.31;5017538;28;987;-91
2021/12/15 11:03:23;;;;;;;;;;;;;;;-142.21;100.00;66915.31;5018194;28;1312;-89
2021/12/15 11:05:49;;;;;;;;;;;;;;;-142.21;100.00;66915.31;5033487;28;1200;-90
2021/12/15 11:08:19;;;;;;;;;;;;;;;-142.21;100.00;66915.31;5019217;28;856;-91
2021/12/15 11:10:44;;;;;;;;;;;;;;;-142.21;100.00;66915.31;5017071;28;897;-91
2021/12/15 11:13:11;;;;;;;;;;;;;;;-142.21;100.00;66915.31;5015866;28;1200;-89
2021/12/15 11:15:40;;;;;;;;;;;;;;;-142.21;100.00;66915.31;5017379;28;1186;-92
2021/12/15 11:18:25;;;;;;;;;;;;;;;-142.21;100.00;66915.31;5034539;28;1928;-89
2021/12/15 11:21:03;;;;;;;;;;;;;;;-142.21;100.00;66915.31;5020145;28;913;-93
2021/12/15 11:23:30;;;;;;;;;;;;;;;-142.21;100.00;66915.31;5016765;28;1290;-91
2021/12/15 11:25:55;;;;;;;;;;;;;;;-142.21;100.00;66915.31;5015681;28;1213;-92
2021/12/15 11:28:23;;;;;;;;;;;;;;;-142.21;100.00;66915.31;5032228;28;1347;-89
2021/12/15 11:30:50;;;;;;;;;;;;;;;-142.21;100.00;66915.31;5013964;28;1253;-90
2021/12/15 11:33:18;;;;;;;;;;;;;;;-142.21;100.00;66915.31;5017573;28;1211;-89
2021/12/15 11:35:48;;;;;;;;;;;;;;;-142.21;100.00;66915.31;5017437;28;980;-89
2021/12/15 11:38:16;;;;;;;;;;;;;;;-142.21;100.00;66915.31;5018622;28;1870;-91
2021/12/15 11:40:45;;;;;;;;;;;;;;;-142.21;100.00;66915.31;5017759;28;1027;-89
2021/12/15 11:43:26;;;;;;;;;;;;;;;-142.21;100.00;66915.31;5015722;28;1297;-90
2021/12/15 11:45:51;;;;;;;;;;;;;;;-142.21;100.00;66915.31;5017372;28;816;-92
2021/12/15 11:48:19;;;;;;;;;;;;;;;-142.21;100.00;66915.31;5015652;28;1391;-88
2021/12/15 11:50:45;;;;;;;;;;;;;;;-142.21;100.00;66915.31;5016275;28;1220;-90
2021/12/15 11:53:21;;;;;;;;;;;;;;;-142.21;100.00;66915.31;5015867;28;1215;-91
2021/12/15 11:55:47;;;;;;;;;;;;;;;-142.21;100.00;66915.31;5016754;28;852;-90
2021/12/15 11:58:12;;;;;;;;;;;;;;;-142.21;100.00;66915.31;5031712;28;1952;-91
2021/12/15 12:00:37;;;;;;;;;;;;;;;-142.21;100.00;66915.31;5031304;28;950;-91
2021/12/15 12:03:02;;;;;;;;;;;;;;;-142.21;100.00;66915.31;5032502;28;1197;-92
2021/12/15 12:05:33;;;;;;;;;;;;;;;-142.21;100.00;66915.31;5036870;22;3651;-84
2021/12/15 12:07:59;;;;;;;;;;;;;;;-142.21;100.00;66915.31;5007786;28;1055;-84
2021/12/15 12:10:43;;;;;;;;;;;;;;;-142.21;100.00;66915.31;4984002;28;1323;-87
2021/12/15 12:13:13;;;;;;;;;;;;;;;-142.21;100.00;66915.31;4979554;28;1226;-86
2021/12/15 12:15:40;;;;;;;;;;;;;;;-142.21;100.00;66915.31;4997664;28;1300;-86
2021/12/15 12:18:10;;;;;;;;;;;;;;;-142.21;100.00;66915.31;4997487;28;1902;-86
2021/12/15 12:20:38;;;;;;;;;;;;;;;-142.21;100.00;66915.31;4997612;28;1212;-86
2021/12/15 12:23:05;;;;;;;;;;;;;;;-142.21;100.00;66915.31;5014785;28;778;-86
2021/12/15 12:25:34;;;;;;;;;;;;;;;-142.21;100.00;66915.31;4996933;28;1319;-86
2021/12/15 12:27:59;;;;;;;;;;;;;;;-142.21;100.00;66915.31;4997451;28;1220;-84
2021/12/15 12:30:33;;;;;;;;;;;;;;;-142.21;100.00;66915.31;4999072;28;1319;-86
2021/12/15 12:32:59;;;;;;;;;;;;;;;-142.21;100.00;66915.31;4997139;28;1200;-85
2021/12/15 12:35:30;;;;;;;;;;;;;;;-142.21;100.00;66915.31;4997988;28;1258;-84
2021/12/15 12:37:57;;;;;;;;;;;;;;;-142.21;100.00;66915.31;4996818;28;1182;-86
2021/12/15 12:40:26;;;;;;;;;;;;;;;-142.21;100.00;66915.31;5014436;28;1891;-86
2021/12/15 12:42:51;;;;;;;;;;;;;;;-142.21;100.00;66915.31;4997212;28;1359;-86
2021/12/15 12:45:17;;;;;;;;;;;;;;;-142.21;100.00;66915.31;4996574;28;1244;-87
2021/12/15 12:48:00;;;;;;;;;;;;;;;-142.21;100.00;66915.31;4996761;28;1342;-86
2021/12/15 12:59:27;;;;;;;;;;;;;;;-142.21;100.00;66915.31;5014413;28;1890;-86
2021/12/15 13:01:53;;;;;;;;;;;;;;;-142.21;100.00;66915.31;5014697;28;988;-87
2021/12/15 13:04:18;;;;;;;;;;;;;;;-142.21;100.00;66915.31;4996905;28;1257;-85
2021/12/15 13:06:43;;;;;;;;;;;;;;;-142.21;100.00;66915.31;4997337;28;1233;-86
2021/12/15 13:09:16;;;;;;;;;;;;;;;-142.21;100.00;66915.31;5014362;28;790;-86
2021/12/15 13:11:46;;;;;;;;;;;;;;;-142.21;100.00;66915.31;4996365;28;1347;-86
2021/12/15 13:14:16;;;;;;;;;;;;;;;-142.21;100.00;66915.31;4997343;28;1354;-86
2021/12/15 13:16:55;;;;;;;;;;;;;;;-142.21;100.00;66915.31;4996473;28;1338;-86
2021/12/15 13:19:26;;;;;;;;;;;;;;;-142.21;100.00;66915.31;4996886;28;1957;-86
2021/12/15 13:30:22;;;;;;;;;;;;;;;-142.21;100.00;66915.31;5018908;28;620;-87
2021/12/15 13:32:48;;;;;;;;;;;;;;;-142.21;100.00;66915.31;5001583;28;1169;-87
2021/12/15 13:35:23;;;;;;;;;;;;;;;-142.21;100.00;66915.31;5020037;28;1185;-84
2021/12/15 13:37:50;;;;;;;;;;;;;;;-142.21;100.00;66915.31;5000722;28;1374;-87
2021/12/15 13:40:16;;;;;;;;;;;;;;;-142.21;100.00;66915.31;5001457;28;1960;-87
2021/12/15 13:42:51;;;;;;;;;;;;;;;-142.21;100.00;66915.31;5002437;28;1390;-88
2021/12/15 13:45:28;;;;;;;;;;;;;;;-142.21;100.00;66915.31;5001858;28;1261;-87
2021/12/15 13:47:54;;;;;;;;;;;;;;;-142.21;100.00;66915.31;5001733;28;1316;-87
2021/12/15 13:50:21;;;;;;;;;;;;;;;-142.21;100.00;66915.31;5002720;28;1244;-87
2021/12/15 13:52:52;;;;;;;;;;;;;;;-142.21;100.00;66915.31;5019624;28;988;-87